Wilkes Barre Scranton International Airport
KAVP : now visible

Airfield :











YOU CAN JOIN US ON...

 
LOGIN :

Register | Disclaimer

   EN    FR    IT 

 









Legend :    VFR   Marginal VFR   IFR   Intensive IFR   Very Intensive IFR
Visi :
Ceiling :
>= 8 km
>= 3000ft
5 to 8 km
1000 to 3000 ft
1500m to 5 km
500 to 1000 ft
800 to 1500m
200 to 500 ft
< 800m
< 200 ft
Symbols :   Thunderstorms  Fog  Heavy snow  Heavy precipitations  Wind > 20 kt







- Airport Elevation : 962 ft
- IATA code : AVP


KAVP - Wilkes Barre Scranton International

CURRENT METAR :
  • 191454Z 25009KT 10SM CLR 30/23 A2992 RMK AO2 SLP121 T03000233 58002

EXPIRED METARs :
  • 191354Z 22008KT 10SM CLR 28/22 A2992 RMK AO2 SLP122 T02830222
  • 191336Z 24008KT 10SM CLR 28/22 A2993 RMK AO2 T02780222
  • 191254Z 22006KT 8SM FEW013 26/23 A2994 RMK AO2 SLP127 T02610228
  • 191219Z 22007KT 6SM HZ SCT009 26/23 A2994 RMK AO2 T02560228

TAF KAVP
Valid from the 19 at 12:00 until the 20 at 12:00 UTC


191122Z 1912/2012 VRB03KT P6SM SCT012
FM191400 23007KT P6SM FEW040 SCT200
FM200000 24004KT P6SM BKN050
KZNY FIR / North America



MET'MAP, your aeronautical weather chart ! - Copyright ORBIFLY December 2007 - Disclaimer

ORBIFLY MET'MAP TEAM :

Programming & Development : Alexandra Zaïnal
Concept & Development : Baudouin d'Aumeries
Co-Development & Prog : Marc-Olivier Méhu
Technical & hardware support : Manuel Goepfert

Contact : metmap@orbifly.com




SOURCES & CREDITS :

   NOAA       Earth
Advisory